Latest Coastal Weather Observations for Port Kembla Harbour

IDN60701

Issued at 6:25 am EST Thursday 2 October 2014 (issued every 10 minutes, with the page automatically refreshed every 10 minutes)

About coastal observations | Map of coastal stations | Coastal observations for NSW | Marine services | Other Formats
Station Details ID: 068253 Name: PORT KEMBLA NTC AWS Lat: -34.47 Lon: 150.91 Height: 0.0 m
Data from the previous 72 hours. | See also: Recent months for locations in New South Wales
Date/Time
EST
Temp

°C
Wind Pressure Rain
since 9am
mm
Weather Cloud Vis
km
Sea
Height
m
Swell
Dir
 
Speed
knots
Gust
knots
hPa Trend Height
m
Period
s
Dir
02/06:00am 12.2 W 6 8 1021.1 - - - - - - - - -
02/05:30am 12.1 W 6 8 1021.1 - - - - - - - - -
02/05:00am 11.1 W 5 6 1021.2 - - - - - - - - -
02/04:30am 10.7 WSW 5 6 1021.1 - - - - - - - - -
02/04:00am 11.1 WSW 3 4 1021.1 - - - - - - - - -
02/03:30am 11.3 WSW 4 5 1020.9 - - - - - - - - -
02/03:00am 11.4 WSW 4 5 1020.9 - - - - - - - - -
02/02:30am 11.8 WSW 4 5 1021.2 - - - - - - - - -
02/02:00am 12.4 W 5 7 1021.3 - - - - - - - - -
02/01:30am 12.3 SW 5 6 1021.7 - - - - - - - - -
02/01:00am 13.1 WSW 4 5 1022.0 - - - - - - - - -
02/12:30am 13.1 WSW 4 5 1022.3 - - - - - - - - -
02/12:00am 13.1 WSW 6 7 1022.6 - - - - - - - - -
 
Date/Time
EST
Temp

°C
Wind Pressure Rain
since 9am
mm
Weather Cloud Vis
km
Sea
Height
m
Swell
Dir
 
Speed
knots
Gust
knots
hPa Trend Height
m
Period
s
Dir
01/11:30pm 13.3 SW 5 7 1022.7 - - - - - - - - -
01/11:00pm 13.6 WSW 5 7 1022.7 - - - - - - - - -
01/10:30pm 13.6 W 5 7 1022.6 - - - - - - - - -
01/10:00pm 13.6 WSW 5 8 1022.7 - - - - - - - - -
01/09:30pm 13.8 W 6 7 1022.6 - - - - - - - - -
01/09:00pm 13.9 WSW 6 7 1022.4 - - - - - - - - -
01/08:30pm 14.6 WSW 6 8 1022.0 - - - - - - - - -
01/08:00pm 14.8 WSW 6 10 1021.8 - - - - - - - - -
01/07:30pm 15.1 SW 5 7 1021.5 - - - - - - - - -
01/07:00pm 15.7 S 5 9 1021.3 - - - - - - - - -
01/06:30pm 15.6 S 5 9 1020.7 - - - - - - - - -
01/06:00pm 15.9 S 6 11 1020.3 - - - - - - - - -
01/05:30pm 16.1 S 7 14 1020.2 - - - - - - - - -
01/05:00pm 16.5 S 7 13 1019.9 - - - - - - - - -
01/04:30pm 16.8 S 6 15 1019.6 - - - - - - - - -
01/04:00pm 16.4 SSE 9 16 1019.1 - - - - - - - - -
01/03:30pm 16.4 SSE 8 15 1018.9 - - - - - - - - -
01/03:00pm 16.8 SSE 7 14 1018.5 - - - - - - - - -
01/02:30pm 17.1 SSE 8 19 1018.2 - - - - - - - - -
01/02:00pm 16.8 SE 10 18 1018.1 - - - - - - - - -
01/01:30pm 17.2 SSE 9 16 1018.0 - - - - - - - - -
01/01:00pm 17.0 SSE 10 17 1017.9 - - - - - - - - -
01/12:30pm 17.0 SE 10 15 1018.0 - - - - - - - - -
01/12:00pm 18.2 WSW 11 21 1017.8 - - - - - - - - -
01/11:30am 17.6 WSW 13 22 1017.7 - - - - - - - - -
01/11:00am 17.5 WSW 16 23 1017.6 - - - - - - - - -
01/10:30am 16.7 WSW 16 25 1017.5 - - - - - - - - -
01/10:00am 16.5 WSW 19 27 1017.3 - - - - - - - - -
01/09:32am 16.4 SW 16 26 1017.3 - - - - - - - - -
01/09:30am 16.2 WSW 17 27 1017.2 - - - - - - - - -
01/09:00am 15.5 WSW 20 27 1016.7 - - - - - - - - -
01/08:30am 14.9 WSW 23 28 1016.4 - - - - - - - - -
01/08:00am 14.8 WSW 22 27 1015.8 - - - - - - - - -
01/07:30am 15.0 WSW 22 27 1015.4 - - - - - - - - -
01/07:00am 14.6 WSW 22 27 1015.0 - - - - - - - - -
01/06:30am 14.3 WSW 19 27 1014.6 - - - - - - - - -
01/06:00am 14.5 WSW 15 26 1014.3 - - - - - - - - -
01/05:59am 14.5 WSW 15 26 1014.3 - - - - - - - - -
01/05:30am 14.8 W 16 23 1013.6 - - - - - - - - -
01/05:00am 15.7 W 17 25 1013.1 - - - - - - - - -
01/04:30am 16.7 WSW 18 27 1012.4 - - - - - - - - -
01/04:21am 17.0 W 15 27 1012.3 - - - - - - - - -
01/04:00am 15.2 SSW 7 15 1011.6 - - - - - - - - -
01/03:30am 15.8 SSW 7 14 1011.3 - - - - - - - - -
01/03:00am 17.0 SW 13 19 1011.1 - - - - - - - - -
01/02:30am 19.4 WSW 18 25 1010.6 - - - - - - - - -
01/02:01am 20.2 WSW 17 27 1010.2 - - - - - - - - -
01/02:00am 20.2 WSW 18 27 1010.1 - - - - - - - - -
01/01:44am 20.9 WSW 17 27 1009.8 - - - - - - - - -
01/01:30am 21.6 WSW 21 27 1009.3 - - - - - - - - -
01/01:05am 24.6 WSW 15 27 1007.6 - - - - - - - - -
01/01:00am 24.8 W 13 19 1007.3 - - - - - - - - -
01/12:30am 25.3 WSW 9 15 1006.4 - - - - - - - - -
01/12:00am 25.3 WSW 8 14 1006.1 - - - - - - - - -
 
Date/Time
EST
Temp

°C
Wind Pressure Rain
since 9am
mm
Weather Cloud Vis
km
Sea
Height
m
Swell
Dir
 
Speed
knots
Gust
knots
hPa Trend Height
m
Period
s
Dir
30/11:30pm 26.3 W 10 17 1006.3 - - - - - - - - -
30/11:00pm 26.8 NW 12 21 1006.1 - - - - - - - - -
30/10:30pm 27.3 WNW 7 16 1006.4 - - - - - - - - -
30/10:00pm 27.5 WNW 6 16 1006.4 - - - - - - - - -
30/09:30pm 26.1 NE 1 3 1006.8 - - - - - - - - -
30/09:00pm 26.8 SW 4 6 1006.8 - - - - - - - - -
30/08:30pm 28.2 NNW 6 10 1006.6 - - - - - - - - -
30/08:00pm 27.8 NW 3 8 1006.4 - - - - - - - - -
30/07:30pm 27.7 NNW 7 10 1006.2 - - - - - - - - -
30/07:00pm 29.1 NNW 11 18 1005.9 - - - - - - - - -
30/06:30pm 29.1 NW 17 25 1005.6 - - - - - - - - -
30/06:16pm 28.7 NW 15 23 1005.6 - - - - - - - - -
30/06:00pm 28.9 NW 8 13 1005.6 - - - - - - - - -
30/05:30pm 29.6 NW 13 18 1005.3 - - - - - - - - -
30/05:13pm 30.8 NW 16 27 1005.2 - - - - - - - - -
30/05:00pm 30.2 NW 14 25 1005.3 - - - - - - - - -
30/04:30pm 30.3 NW 19 27 1005.5 - - - - - - - - -
30/04:03pm 31.6 NW 16 26 1005.3 - - - - - - - - -
30/04:00pm 31.0 NW 15 24 1005.4 - - - - - - - - -
30/03:36pm 30.0 NW 15 27 1005.5 - - - - - - - - -
30/03:30pm 31.9 NW 14 25 1005.4 - - - - - - - - -
30/03:15pm 31.0 NW 17 27 1005.6 - - - - - - - - -
30/03:00pm 31.6 NW 20 26 1005.7 - - - - - - - - -
30/02:30pm 31.8 NW 20 27 1006.0 - - - - - - - - -
30/02:20pm 31.5 NW 17 27 1005.9 - - - - - - - - -
30/02:00pm 30.7 NW 19 26 1006.3 - - - - - - - - -
30/01:32pm 31.2 NNW 17 27 1006.8 - - - - - - - - -
30/01:30pm 30.1 NNW 16 24 1006.9 - - - - - - - - -
30/01:00pm 30.8 NW 15 25 1007.3 - - - - - - - - -
30/12:35pm 29.9 NW 16 27 1007.7 - - - - - - - - -
30/12:30pm 30.0 NW 17 26 1007.9 - - - - - - - - -
30/12:22pm 30.2 NNW 16 26 1008.0 - - - - - - - - -
30/12:00pm 29.2 N 9 19 1008.5 - - - - - - - - -
30/11:30am 28.5 N 9 17 1009.1 - - - - - - - - -
30/11:00am 28.1 NNW 11 21 1009.8 - - - - - - - - -
30/10:30am 27.0 NNW 11 17 1010.3 - - - - - - - - -
30/10:00am 27.1 NNW 10 15 1011.1 - - - - - - - - -
30/09:30am 25.9 NNW 7 11 1011.5 - - - - - - - - -
30/09:00am 24.6 NNE 4 6 1011.8 - - - - - - - - -
30/08:30am 21.6 NE 5 8 1012.0 - - - - - - - - -
30/08:00am 21.0 E 4 6 1011.9 - - - - - - - - -
30/07:30am 20.3 SE 2 3 1012.0 - - - - - - - - -
30/07:00am 20.1 SE 1 3 1011.9 - - - - - - - - -
30/06:30am 19.3 SSE 3 3 1011.9 - - - - - - - - -
30/06:00am 18.1 E 1 5 1011.6 - - - - - - - - -
30/05:30am 17.9 SE 2 3 1011.6 - - - - - - - - -
30/05:00am 17.6 CALM 0 1 1011.4 - - - - - - - - -
30/04:30am 17.6 NE 1 2 1011.4 - - - - - - - - -
30/04:00am 17.4 NNE 1 2 1011.5 - - - - - - - - -
30/03:30am 17.2 NNE 2 3 1011.7 - - - - - - - - -
30/03:00am 17.2 N 2 3 1012.0 - - - - - - - - -
30/02:30am 17.2 N 3 4 1012.3 - - - - - - - - -
30/02:00am 17.6 NNE 4 6 1012.6 - - - - - - - - -
30/01:30am 17.6 NE 4 5 1013.0 - - - - - - - - -
30/01:00am 17.7 NE 4 5 1013.3 - - - - - - - - -
30/12:30am 17.5 ENE 2 4 1013.5 - - - - - - - - -
30/12:00am 17.3 E 2 3 1013.7 - - - - - - - - -
 
Date/Time
EST
Temp

°C
Wind Pressure Rain
since 9am
mm
Weather Cloud Vis
km
Sea
Height
m
Swell
Dir
 
Speed
knots
Gust
knots
hPa Trend Height
m
Period
s
Dir
29/11:30pm 17.1 ESE 1 2 1013.8 - - - - - - - - -
29/11:00pm 17.1 SW 1 3 1014.0 - - - - - - - - -
29/10:30pm 17.4 SSW 2 3 1014.0 - - - - - - - - -
29/10:00pm 17.8 SE 1 3 1014.0 - - - - - - - - -
29/09:30pm 17.8 SSE 3 5 1014.2 - - - - - - - - -
29/09:00pm 17.9 SSE 3 6 1014.2 - - - - - - - - -
29/08:30pm 18.2 S 4 8 1014.4 - - - - - - - - -
29/08:00pm 18.2 S 5 9 1014.2 - - - - - - - - -
29/07:30pm 18.5 S 7 14 1014.1 - - - - - - - - -
29/07:00pm 18.7 SSW 8 18 1013.6 - - - - - - - - -
29/06:30pm 19.1 S 9 18 1013.3 - - - - - - - - -
29/06:00pm 19.6 SSW 10 17 1012.8 - - - - - - - - -
29/05:30pm 19.8 S 9 20 1012.4 - - - - - - - - -
29/05:00pm 20.6 SSE 8 15 1012.1 - - - - - - - - -
29/04:30pm 21.6 N 1 4 1011.2 - - - - - - - - -

Other Formats:

Comma delimited format used in spreadsheet applications
http://www.bom.gov.au/fwo/IDN60701/IDN60701.95745.axf

JavaScript Object Notation format (JSON) in row-major order
http://www.bom.gov.au/fwo/IDN60701/IDN60701.95745.json